createdAt,value
2019-02-18T00:02:10.802Z,3.60
2019-02-18T00:04:40.609Z,3.60
2019-02-18T00:07:14.526Z,3.50
2019-02-18T00:09:55.326Z,3.60
2019-02-18T00:12:25.371Z,3.60
2019-02-18T00:14:55.246Z,3.60
2019-02-18T00:17:25.503Z,3.50
2019-02-18T00:19:55.635Z,3.40
2019-02-18T00:22:25.476Z,3.50
2019-02-18T00:24:55.562Z,3.40
2019-02-18T00:27:25.775Z,3.30
2019-02-18T00:29:55.817Z,3.30
2019-02-18T00:32:26.107Z,3.30
2019-02-18T00:34:56.664Z,3.30
2019-02-18T00:37:26.867Z,3.20
2019-02-18T00:39:57.101Z,3.10
2019-02-18T00:42:27.233Z,3.10
2019-02-18T00:44:57.275Z,3.00
2019-02-18T00:47:27.460Z,3.00
2019-02-18T00:49:57.270Z,3.00
2019-02-18T00:52:27.585Z,3.00
2019-02-18T00:54:57.773Z,3.00
2019-02-18T00:57:27.915Z,3.00
2019-02-18T00:59:58.287Z,3.10
2019-02-18T01:02:28.257Z,3.10
2019-02-18T01:04:58.146Z,3.20
2019-02-18T01:07:34.683Z,3.20
2019-02-18T01:10:00.393Z,3.30
2019-02-18T01:12:31.170Z,3.00
2019-02-18T01:15:05.857Z,2.90
2019-02-18T01:17:35.758Z,2.80
2019-02-18T01:20:07.119Z,2.90
2019-02-18T01:22:37.601Z,2.90
2019-02-18T01:25:09.531Z,2.90
2019-02-18T01:27:39.862Z,2.90
2019-02-18T01:30:12.274Z,2.80
2019-02-18T01:32:42.482Z,2.70
2019-02-18T01:35:12.590Z,2.60
2019-02-18T01:37:45.645Z,2.70
2019-02-18T01:40:14.890Z,2.70
2019-02-18T01:42:45.018Z,2.60
2019-02-18T01:45:15.473Z,2.60
2019-02-18T01:47:45.456Z,2.70
2019-02-18T01:50:15.521Z,2.60
2019-02-18T01:52:46.283Z,2.60
2019-02-18T01:55:16.732Z,2.50
2019-02-18T01:57:49.088Z,2.50
2019-02-18T02:00:19.310Z,2.50
2019-02-18T02:02:49.957Z,2.40
2019-02-18T02:05:23.031Z,2.40
2019-02-18T02:07:56.371Z,2.30
2019-02-18T02:10:25.418Z,2.40
2019-02-18T02:13:27.423Z,2.30
2019-02-18T02:15:59.218Z,2.30
2019-02-18T02:18:29.342Z,2.20
2019-02-18T02:20:59.579Z,2.20
2019-02-18T02:23:30.074Z,2.20
2019-02-18T02:26:00.254Z,2.20
2019-02-18T02:28:30.236Z,2.20
2019-02-18T02:31:01.263Z,2.20
2019-02-18T02:33:31.799Z,2.10
2019-02-18T02:38:37.763Z,2.00
2019-02-18T02:43:48.032Z,2.00
2019-02-18T02:46:18.160Z,2.00
2019-02-18T02:48:50.891Z,2.00
2019-02-18T02:51:22.164Z,2.00
2019-02-18T02:53:52.213Z,2.00
2019-02-18T02:56:22.133Z,1.90
2019-02-18T02:58:52.650Z,1.90
2019-02-18T03:01:23.818Z,1.80
2019-02-18T03:03:53.991Z,1.80
2019-02-18T03:06:24.199Z,1.80
2019-02-18T03:08:54.203Z,1.80
2019-02-18T03:11:24.003Z,1.80
2019-02-18T03:13:53.920Z,1.70
2019-02-18T03:16:25.688Z,1.80
2019-02-18T03:18:55.807Z,1.80
2019-02-18T03:21:25.678Z,1.70
2019-02-18T03:23:55.691Z,1.80
2019-02-18T03:26:25.712Z,1.70
2019-02-18T03:29:58.673Z,1.70
2019-02-18T03:32:35.185Z,1.70
2019-02-18T03:35:13.159Z,1.70
2019-02-18T03:37:43.185Z,1.60
2019-02-18T03:40:13.424Z,1.60
2019-02-18T03:42:43.470Z,1.50
2019-02-18T03:45:13.549Z,1.60
2019-02-18T03:47:45.092Z,1.70
2019-02-18T03:50:15.084Z,1.50
2019-02-18T03:52:45.046Z,1.60
2019-02-18T03:55:14.835Z,1.50
2019-02-18T03:57:44.739Z,1.50
2019-02-18T04:00:14.852Z,1.40
2019-02-18T04:02:44.883Z,1.40
2019-02-18T04:05:14.654Z,1.40
2019-02-18T04:07:47.322Z,1.30
2019-02-18T04:10:17.164Z,1.40
2019-02-18T04:12:46.982Z,1.40
2019-02-18T04:15:17.054Z,1.40
2019-02-18T04:17:46.884Z,1.40
2019-02-18T04:20:16.930Z,1.30
2019-02-18T04:22:46.673Z,1.30
2019-02-18T04:25:19.581Z,1.30
2019-02-18T04:27:50.693Z,1.30
2019-02-18T04:30:20.591Z,1.30
2019-02-18T04:32:50.473Z,1.30
2019-02-18T04:35:21.439Z,1.30
2019-02-18T04:37:52.706Z,1.40
2019-02-18T04:40:22.915Z,1.40
2019-02-18T04:42:55.364Z,1.40
2019-02-18T04:45:25.343Z,1.50
2019-02-18T04:47:55.362Z,1.40
2019-02-18T04:50:25.495Z,1.20
2019-02-18T04:52:55.367Z,1.20
2019-02-18T04:55:27.597Z,1.20
2019-02-18T04:58:00.156Z,1.10
2019-02-18T05:00:29.930Z,1.00
2019-02-18T05:03:00.446Z,1.10
2019-02-18T05:05:30.162Z,1.20
2019-02-18T05:07:59.971Z,1.20
2019-02-18T05:10:29.798Z,1.10
2019-02-18T05:13:00.658Z,1.10
2019-02-18T05:15:30.323Z,1.10
2019-02-18T05:18:00.231Z,1.10
2019-02-18T05:20:33.182Z,1.10
2019-02-18T05:23:03.242Z,1.20
2019-02-18T05:25:32.990Z,1.20
2019-02-18T05:28:07.157Z,1.10
2019-02-18T05:30:36.927Z,1.10
2019-02-18T05:33:08.098Z,1.10
2019-02-18T05:35:38.305Z,1.10
2019-02-18T05:38:08.444Z,1.10
2019-02-18T05:40:39.394Z,1.10
2019-02-18T05:43:09.717Z,1.20
2019-02-18T05:45:39.519Z,1.10
2019-02-18T05:48:09.222Z,1.10
2019-02-18T05:50:39.334Z,1.10
2019-02-18T05:53:11.106Z,1.10
2019-02-18T05:55:41.164Z,1.10
2019-02-18T05:58:10.979Z,0.90
2019-02-18T06:00:40.968Z,0.80
2019-02-18T06:03:10.666Z,0.80
2019-02-18T06:05:40.922Z,0.80
2019-02-18T06:08:10.667Z,0.70
2019-02-18T06:10:41.279Z,0.80
2019-02-18T06:13:11.082Z,0.90
2019-02-18T06:15:40.898Z,0.90
2019-02-18T06:18:21.196Z,0.80
2019-02-18T06:20:51.015Z,0.80
2019-02-18T06:23:20.727Z,0.90
2019-02-18T06:25:50.972Z,0.80
2019-02-18T06:28:20.713Z,0.80
2019-02-18T06:30:50.539Z,0.80
2019-02-18T06:33:21.635Z,0.80
2019-02-18T06:35:54.119Z,0.80
2019-02-18T06:38:23.897Z,0.90
2019-02-18T06:40:54.251Z,0.80
2019-02-18T06:43:24.007Z,0.70
2019-02-18T06:46:03.405Z,0.80
2019-02-18T06:48:35.314Z,0.80
2019-02-18T06:51:05.282Z,0.90
2019-02-18T06:53:35.003Z,0.90
2019-02-18T06:56:04.841Z,0.90
2019-02-18T06:58:39.430Z,0.90
2019-02-18T07:01:31.558Z,0.90
2019-02-18T07:04:29.611Z,0.90
2019-02-18T07:07:17.007Z,0.90
2019-02-18T07:10:12.278Z,0.90
2019-02-18T07:12:45.297Z,0.80
2019-02-18T07:15:15.319Z,0.90
2019-02-18T07:17:45.410Z,0.80
2019-02-18T07:20:15.466Z,0.80
2019-02-18T07:22:45.346Z,0.80
2019-02-18T07:25:15.180Z,0.80
2019-02-18T07:27:44.997Z,0.90
2019-02-18T07:30:16.370Z,0.80
2019-02-18T07:32:46.434Z,0.90
2019-02-18T07:35:16.503Z,1.00
2019-02-18T07:37:46.737Z,1.00
2019-02-18T07:40:17.052Z,1.10
2019-02-18T07:42:46.789Z,1.00
2019-02-18T07:45:16.521Z,1.10
2019-02-18T07:47:46.608Z,1.20
2019-02-18T07:50:20.706Z,1.20
2019-02-18T07:52:49.000Z,1.30
2019-02-18T07:55:19.067Z,1.40
2019-02-18T07:57:49.144Z,1.50
2019-02-18T08:00:19.098Z,1.60
2019-02-18T08:02:49.206Z,1.60
2019-02-18T08:05:19.269Z,1.70
2019-02-18T08:07:49.050Z,1.90
2019-02-18T08:10:19.116Z,2.00
2019-02-18T08:12:48.857Z,2.10
2019-02-18T08:15:18.977Z,2.30
2019-02-18T08:17:49.110Z,2.40
2019-02-18T08:20:18.890Z,2.50
2019-02-18T08:22:49.057Z,2.60
2019-02-18T08:25:18.906Z,2.80
2019-02-18T08:27:48.737Z,3.00
2019-02-18T08:30:18.974Z,3.20
2019-02-18T08:32:49.313Z,3.30
2019-02-18T08:35:19.122Z,3.50
2019-02-18T08:37:49.093Z,3.70
2019-02-18T08:40:22.443Z,3.80
2019-02-18T08:42:50.484Z,3.90
2019-02-18T08:45:20.183Z,4.00
2019-02-18T08:47:49.979Z,4.10
2019-02-18T08:50:19.842Z,4.30
2019-02-18T08:52:49.896Z,4.40
2019-02-18T08:55:19.945Z,4.50
2019-02-18T08:57:49.993Z,4.60
2019-02-18T09:00:20.181Z,4.70
2019-02-18T09:02:50.409Z,4.80
2019-02-18T09:05:20.418Z,4.90
2019-02-18T09:07:50.879Z,5.10
2019-02-18T09:10:20.883Z,5.20
2019-02-18T09:12:50.706Z,5.40
2019-02-18T09:15:20.535Z,5.60
2019-02-18T09:17:50.581Z,5.80
2019-02-18T09:20:20.354Z,6.00
2019-02-18T09:22:58.910Z,6.20
2019-02-18T09:25:33.613Z,6.50
2019-02-18T09:28:03.798Z,6.70
2019-02-18T09:30:36.190Z,7.00
2019-02-18T09:33:06.159Z,7.20
2019-02-18T09:35:36.767Z,7.30
2019-02-18T09:38:24.406Z,7.40
2019-02-18T09:40:51.207Z,7.60
2019-02-18T09:43:18.774Z,7.90
2019-02-18T09:45:48.706Z,7.90
2019-02-18T09:48:18.786Z,8.10
2019-02-18T09:50:48.523Z,8.20
2019-02-18T09:53:18.229Z,8.30
2019-02-18T09:55:48.579Z,8.50
2019-02-18T09:58:18.299Z,8.60
2019-02-18T10:00:48.354Z,8.90
2019-02-18T10:03:18.087Z,9.20
2019-02-18T10:05:47.970Z,9.50
2019-02-18T10:08:17.868Z,9.90
2019-02-18T10:10:55.474Z,10.20
2019-02-18T10:13:19.296Z,10.50
2019-02-18T10:15:49.191Z,10.80
2019-02-18T10:18:19.750Z,10.90
2019-02-18T10:20:49.615Z,11.10
2019-02-18T10:23:19.871Z,11.40
2019-02-18T10:25:49.658Z,11.50
2019-02-18T10:28:19.721Z,11.90
2019-02-18T10:30:49.793Z,12.20
2019-02-18T10:33:19.535Z,12.50
2019-02-18T10:35:50.179Z,12.70
2019-02-18T10:38:20.117Z,12.90
2019-02-18T10:40:50.098Z,13.00
2019-02-18T10:43:20.257Z,13.00
2019-02-18T10:45:50.010Z,13.10
2019-02-18T10:48:20.259Z,13.10
2019-02-18T10:50:50.352Z,13.10
2019-02-18T10:53:20.475Z,13.20
2019-02-18T10:55:50.349Z,13.40
2019-02-18T10:58:20.413Z,13.60
2019-02-18T11:00:50.453Z,13.70
2019-02-18T11:03:20.682Z,13.90
2019-02-18T11:05:50.404Z,14.10
2019-02-18T11:08:20.142Z,14.20
2019-02-18T11:10:50.280Z,14.40
2019-02-18T11:13:20.240Z,14.60
2019-02-18T11:15:50.402Z,14.60
2019-02-18T11:18:20.292Z,14.50
2019-02-18T11:20:50.261Z,14.90
2019-02-18T11:23:20.018Z,15.00
2019-02-18T11:25:49.814Z,15.10
2019-02-18T11:28:19.648Z,15.50
2019-02-18T11:30:49.737Z,15.50
2019-02-18T11:33:19.772Z,15.60
2019-02-18T11:35:50.971Z,15.80
2019-02-18T11:38:21.387Z,16.00
2019-02-18T11:40:51.204Z,16.20
2019-02-18T11:43:21.113Z,16.20
2019-02-18T11:45:51.090Z,16.20
2019-02-18T11:48:21.194Z,16.40
2019-02-18T11:50:51.560Z,16.60
2019-02-18T11:53:21.435Z,16.80
2019-02-18T11:55:51.452Z,17.00
2019-02-18T11:58:21.459Z,17.00
2019-02-18T12:00:51.294Z,17.00
2019-02-18T12:03:21.302Z,17.20
2019-02-18T12:05:52.479Z,17.50
2019-02-18T12:08:22.363Z,17.70
2019-02-18T12:10:52.437Z,17.80
2019-02-18T12:13:22.217Z,18.00
2019-02-18T12:15:52.276Z,18.40
2019-02-18T12:18:22.107Z,18.50
2019-02-18T12:20:51.803Z,18.60
2019-02-18T12:23:21.567Z,18.80
2019-02-18T12:25:51.615Z,19.10
2019-02-18T12:28:21.429Z,19.20
2019-02-18T12:30:51.362Z,19.10
2019-02-18T12:33:21.640Z,19.20
2019-02-18T12:35:51.552Z,19.40
2019-02-18T12:38:21.371Z,19.60
2019-02-18T12:40:51.398Z,19.60
2019-02-18T12:43:21.185Z,19.70
2019-02-18T12:45:50.909Z,19.50
2019-02-18T12:48:21.095Z,18.80
2019-02-18T12:50:51.283Z,18.80
2019-02-18T12:53:21.015Z,19.10
2019-02-18T12:55:51.234Z,18.80
2019-02-18T12:58:21.100Z,19.10
2019-02-18T13:00:51.257Z,19.40
2019-02-18T13:03:21.261Z,19.50
2019-02-18T13:05:51.388Z,19.50
2019-02-18T13:08:21.471Z,19.80
2019-02-18T13:10:51.466Z,19.60
2019-02-18T13:13:21.664Z,19.70
2019-02-18T13:15:51.897Z,19.90
2019-02-18T13:18:22.158Z,19.90
2019-02-18T13:20:52.733Z,20.00
2019-02-18T13:23:22.656Z,20.00
2019-02-18T13:25:55.268Z,20.20
2019-02-18T13:28:25.529Z,19.80
2019-02-18T13:30:55.373Z,20.00
2019-02-18T13:33:25.348Z,20.00
2019-02-18T13:35:55.408Z,20.10
2019-02-18T13:38:25.550Z,20.30
2019-02-18T13:40:55.487Z,20.00
2019-02-18T13:43:25.595Z,20.20
2019-02-18T13:45:55.458Z,20.30
2019-02-18T13:48:25.418Z,20.30
2019-02-18T13:50:55.590Z,20.30
2019-02-18T13:53:25.670Z,20.10
2019-02-18T13:55:55.833Z,20.00
2019-02-18T13:58:26.266Z,20.40
2019-02-18T14:00:56.074Z,20.30
2019-02-18T14:03:26.446Z,20.40
2019-02-18T14:05:56.566Z,20.20
2019-02-18T14:08:26.563Z,20.20
2019-02-18T14:10:56.394Z,20.40
2019-02-18T14:13:26.360Z,20.30
2019-02-18T14:15:56.250Z,20.10
2019-02-18T14:18:26.577Z,20.30
2019-02-18T14:20:57.245Z,20.20
2019-02-18T14:23:28.930Z,20.20
2019-02-18T14:25:58.691Z,20.20
2019-02-18T14:28:29.888Z,20.00
2019-02-18T14:31:00.081Z,20.10
2019-02-18T14:33:29.801Z,20.30
2019-02-18T14:35:59.684Z,20.20
2019-02-18T14:38:30.085Z,19.70
2019-02-18T14:40:59.960Z,19.90
2019-02-18T14:43:30.140Z,19.70
2019-02-18T14:46:00.028Z,19.70
2019-02-18T14:48:30.543Z,19.50
2019-02-18T14:51:00.471Z,19.60
2019-02-18T14:53:30.382Z,19.60
2019-02-18T14:56:00.533Z,19.40
2019-02-18T14:58:31.098Z,18.90
2019-02-18T15:01:00.844Z,18.70
2019-02-18T15:03:30.751Z,18.50
2019-02-18T15:06:00.538Z,18.60
2019-02-18T15:08:31.330Z,18.50
2019-02-18T15:11:01.555Z,18.20
2019-02-18T15:13:31.600Z,18.20
2019-02-18T15:16:02.917Z,18.00
2019-02-18T15:18:32.798Z,17.70
2019-02-18T15:21:03.093Z,17.70
2019-02-18T15:23:32.979Z,17.40
2019-02-18T15:26:03.035Z,17.30
2019-02-18T15:28:32.961Z,17.10
2019-02-18T15:31:02.826Z,17.10
2019-02-18T15:33:32.710Z,16.90
2019-02-18T15:36:03.152Z,16.80
2019-02-18T15:38:33.310Z,16.70
2019-02-18T15:41:03.279Z,16.80
2019-02-18T15:43:33.543Z,16.60
2019-02-18T15:46:03.694Z,16.50
2019-02-18T15:48:33.450Z,16.40
2019-02-18T15:51:03.283Z,16.30
2019-02-18T15:53:33.029Z,16.10
2019-02-18T15:56:02.785Z,15.60
2019-02-18T15:58:32.751Z,15.70
2019-02-18T16:01:02.959Z,15.50
2019-02-18T16:03:32.848Z,15.50
2019-02-18T16:06:02.690Z,15.20
2019-02-18T16:08:32.889Z,15.10
2019-02-18T16:11:02.620Z,14.90
2019-02-18T16:13:32.453Z,14.60
2019-02-18T16:16:02.440Z,14.50
2019-02-18T16:18:32.242Z,14.20
2019-02-18T16:21:02.666Z,14.20
2019-02-18T16:23:32.880Z,14.10
2019-02-18T16:26:02.871Z,13.80
2019-02-18T16:28:32.939Z,13.70
2019-02-18T16:31:02.984Z,13.40
2019-02-18T16:33:33.295Z,13.10
2019-02-18T16:36:03.241Z,13.00
2019-02-18T16:38:33.134Z,13.20
2019-02-18T16:41:02.990Z,13.10
2019-02-18T16:43:33.281Z,13.00
2019-02-18T16:46:03.401Z,12.60
2019-02-18T16:48:33.599Z,12.30
2019-02-18T16:51:03.534Z,12.00
2019-02-18T16:53:33.610Z,12.00
2019-02-18T16:56:03.538Z,12.00
2019-02-18T16:58:33.762Z,12.00
2019-02-18T17:01:04.331Z,11.90
2019-02-18T17:03:34.416Z,11.70
2019-02-18T17:06:04.959Z,11.60
2019-02-18T17:08:34.755Z,11.50
2019-02-18T17:11:04.983Z,11.20
2019-02-18T17:13:34.999Z,11.00
2019-02-18T17:16:04.914Z,11.00
2019-02-18T17:18:35.675Z,10.80
2019-02-18T17:21:05.612Z,10.60
2019-02-18T17:23:35.637Z,10.40
2019-02-18T17:26:05.627Z,10.10
2019-02-18T17:28:35.454Z,10.00
2019-02-18T17:31:05.395Z,10.10
2019-02-18T17:33:36.794Z,10.20
2019-02-18T17:36:06.678Z,10.10
2019-02-18T17:38:36.734Z,10.00
2019-02-18T17:41:06.608Z,9.80
2019-02-18T17:43:36.729Z,9.60
2019-02-18T17:46:06.519Z,9.40
2019-02-18T17:48:36.583Z,9.40
2019-02-18T17:51:07.925Z,9.20
2019-02-18T17:53:37.702Z,9.10
2019-02-18T17:56:07.898Z,9.00
2019-02-18T17:58:37.626Z,8.90
2019-02-18T18:01:07.734Z,8.90
2019-02-18T18:03:37.699Z,8.70
2019-02-18T18:06:07.926Z,8.60
2019-02-18T18:08:37.919Z,8.40
2019-02-18T18:11:07.714Z,8.50
2019-02-18T18:13:37.494Z,8.40
2019-02-18T18:16:07.493Z,8.30
2019-02-18T18:18:37.695Z,8.20
2019-02-18T18:21:07.802Z,8.20
2019-02-18T18:23:43.475Z,8.30
2019-02-18T18:26:13.295Z,8.30
2019-02-18T18:28:43.343Z,8.30
2019-02-18T18:31:13.298Z,8.30
2019-02-18T18:33:43.167Z,8.20
2019-02-18T18:36:12.946Z,8.10
2019-02-18T18:38:45.557Z,7.90
2019-02-18T18:41:15.670Z,7.80
2019-02-18T18:43:48.306Z,7.80
2019-02-18T18:46:18.212Z,7.90
2019-02-18T18:48:47.904Z,7.80
2019-02-18T18:51:17.816Z,7.70
2019-02-18T18:53:47.630Z,7.60
2019-02-18T18:56:17.744Z,7.60
2019-02-18T18:58:47.878Z,7.60
2019-02-18T19:01:17.876Z,7.60
2019-02-18T19:03:47.773Z,7.50
2019-02-18T19:06:17.617Z,7.50
2019-02-18T19:08:47.943Z,7.50
2019-02-18T19:11:17.652Z,7.40
2019-02-18T19:13:47.375Z,7.50
2019-02-18T19:16:17.488Z,7.40
2019-02-18T19:18:47.302Z,7.40
2019-02-18T19:21:17.278Z,7.40
2019-02-18T19:23:47.477Z,7.40
2019-02-18T19:26:17.394Z,7.30
2019-02-18T19:28:47.742Z,7.40
2019-02-18T19:31:18.332Z,7.30
2019-02-18T19:33:48.364Z,7.20
2019-02-18T19:36:18.239Z,7.10
2019-02-18T19:38:48.196Z,7.00
2019-02-18T19:41:17.942Z,6.90
2019-02-18T19:43:50.359Z,6.90
2019-02-18T19:46:19.402Z,6.80
2019-02-18T19:48:49.599Z,6.70
2019-02-18T19:51:19.633Z,6.80
2019-02-18T19:53:49.634Z,6.70
2019-02-18T19:56:19.345Z,6.70
2019-02-18T19:58:49.223Z,6.60
2019-02-18T20:01:38.199Z,6.60
2019-02-18T20:04:08.503Z,6.60
2019-02-18T20:06:38.890Z,6.50
2019-02-18T20:09:13.847Z,6.30
2019-02-18T20:11:44.315Z,6.40
2019-02-18T20:14:14.292Z,6.30
2019-02-18T20:16:44.250Z,6.30
2019-02-18T20:19:14.065Z,6.20
2019-02-18T20:21:44.491Z,6.00
2019-02-18T20:24:14.203Z,6.10
2019-02-18T20:26:44.588Z,6.10
2019-02-18T20:29:15.124Z,6.10
2019-02-18T20:31:44.927Z,6.00
2019-02-18T20:34:14.786Z,5.90
2019-02-18T20:36:44.992Z,5.90
2019-02-18T20:39:15.468Z,5.90
2019-02-18T20:41:45.327Z,6.00
2019-02-18T20:44:15.406Z,6.00
2019-02-18T20:46:45.408Z,5.90
2019-02-18T20:49:15.794Z,6.00
2019-02-18T20:51:45.507Z,6.00
2019-02-18T20:54:15.421Z,5.90
2019-02-18T20:56:45.642Z,6.00
2019-02-18T20:59:15.623Z,5.90
2019-02-18T21:01:45.718Z,5.80
2019-02-18T21:04:15.740Z,5.80
2019-02-18T21:06:46.104Z,5.70
2019-02-18T21:09:15.887Z,5.80
2019-02-18T21:11:45.982Z,5.70
2019-02-18T21:14:16.442Z,5.60
2019-02-18T21:16:46.575Z,5.50
2019-02-18T21:19:17.029Z,5.70
2019-02-18T21:21:47.394Z,5.60
2019-02-18T21:24:17.853Z,5.70
2019-02-18T21:26:47.632Z,5.60
2019-02-18T21:29:17.467Z,5.60
2019-02-18T21:31:47.483Z,5.50
2019-02-18T21:34:17.854Z,5.30
2019-02-18T21:36:47.708Z,5.20
2019-02-18T21:39:17.846Z,5.30
2019-02-18T21:41:47.947Z,5.40
2019-02-18T21:44:24.927Z,5.40
2019-02-18T21:46:49.732Z,5.30
2019-02-18T21:49:19.583Z,5.30
2019-02-18T21:51:49.339Z,5.20
2019-02-18T21:54:19.125Z,5.30
2019-02-18T21:56:49.290Z,5.20
2019-02-18T21:59:19.219Z,5.20
2019-02-18T22:01:49.470Z,5.10
2019-02-18T22:04:19.190Z,5.20
2019-02-18T22:06:49.314Z,5.30
2019-02-18T22:09:19.118Z,5.30
2019-02-18T22:11:48.934Z,5.30
2019-02-18T22:14:18.972Z,5.20
2019-02-18T22:16:49.204Z,5.20
2019-02-18T22:19:19.063Z,5.10
2019-02-18T22:21:49.119Z,5.10
2019-02-18T22:24:21.973Z,5.00
2019-02-18T22:26:52.239Z,5.00
2019-02-18T22:29:22.082Z,5.00
2019-02-18T22:31:52.437Z,5.10
2019-02-18T22:34:22.402Z,5.10
2019-02-18T22:36:52.426Z,5.10
2019-02-18T22:39:22.919Z,5.10
2019-02-18T22:41:53.787Z,5.00
2019-02-18T22:44:23.670Z,5.00
2019-02-18T22:46:59.299Z,4.90
2019-02-18T22:49:35.799Z,5.00
2019-02-18T22:52:05.872Z,4.80
2019-02-18T22:54:35.992Z,4.90
2019-02-18T22:57:05.882Z,4.80
2019-02-18T22:59:35.730Z,4.70
2019-02-18T23:02:07.246Z,4.80
2019-02-18T23:04:37.047Z,4.70
2019-02-18T23:07:06.802Z,4.70
2019-02-18T23:09:36.642Z,4.70
2019-02-18T23:12:06.713Z,4.90
2019-02-18T23:14:37.723Z,4.80
2019-02-18T23:17:09.579Z,4.80
2019-02-18T23:19:40.295Z,4.70
2019-02-18T23:22:10.102Z,4.70
2019-02-18T23:24:40.219Z,4.70
2019-02-18T23:27:10.730Z,4.80
2019-02-18T23:29:41.406Z,4.70
2019-02-18T23:32:11.611Z,4.70
2019-02-18T23:34:41.376Z,4.70
2019-02-18T23:37:11.527Z,4.60
2019-02-18T23:39:41.321Z,4.60
2019-02-18T23:42:11.166Z,4.60
2019-02-18T23:44:41.230Z,4.70
2019-02-18T23:47:11.294Z,4.50
2019-02-18T23:49:41.106Z,4.50
2019-02-18T23:52:11.157Z,4.50
2019-02-18T23:54:41.614Z,4.50
2019-02-18T23:57:11.398Z,4.50
2019-02-18T23:59:41.431Z,4.50
